Time;durP1;ratioP1;P1;durP2;ratioP2;P2;SDS_P1;SDS_P2;PMS_P1;PMS_P2;Temp;Humidity;BMP_temperature;BMP_pressure;BME280_temperature;BME280_humidity;BME280_pressure;Samples;Min_cycle;Max_cycle;Signal;HPM_P1;HPM_P2
2023/04/19 00:00:48;;;;;;;22.25;16.02;;;10.70;99.90;;;-144.05;63.87;56921.06;5094211;28;20483;-77
2023/04/19 00:03:14;;;;;;;22.88;15.65;;;10.70;99.90;;;-144.05;64.57;56889.19;5093946;28;20056;-77
2023/04/19 00:05:40;;;;;;;20.60;14.45;;;10.70;99.90;;;-144.05;64.15;56916.81;5096232;28;20044;-76
2023/04/19 00:08:06;;;;;;;22.30;14.63;;;10.70;99.90;;;-144.05;64.67;56910.44;5077507;28;20111;-76
2023/04/19 00:10:34;;;;;;;23.90;15.70;;;10.70;99.90;;;-144.05;65.18;56929.53;5094601;28;20051;-76
2023/04/19 00:13:01;;;;;;;24.15;14.25;;;10.70;99.90;;;-144.05;65.17;56910.44;5077437;28;20123;-77
2023/04/19 00:15:27;;;;;;;23.15;15.30;;;10.70;99.90;;;-144.05;64.99;56908.31;5097868;28;20484;-77
2023/04/19 00:17:53;;;;;;;22.27;15.13;;;10.70;99.90;;;-144.05;64.36;56925.28;5095582;28;20526;-77
2023/04/19 00:20:20;;;;;;;24.88;16.33;;;10.70;99.90;;;-144.05;65.38;56908.31;5077477;28;20036;-78
2023/04/19 00:22:46;;;;;;;25.58;15.98;;;10.70;99.90;;;-144.05;65.02;56931.66;5108694;28;20048;-75
2023/04/19 00:25:12;;;;;;;23.90;16.45;;;10.60;99.90;;;-144.05;65.29;56912.56;5086832;28;20112;-77
2023/04/19 00:27:38;;;;;;;24.42;14.98;;;10.70;99.90;;;-144.05;65.06;56916.81;5094398;28;20115;-77
2023/04/19 00:30:06;;;;;;;24.20;15.40;;;10.60;99.90;;;-144.05;65.27;56906.19;5095936;28;20039;-77
2023/04/19 00:32:32;;;;;;;25.10;16.15;;;10.60;99.90;;;-144.05;65.36;56908.31;5096169;28;20391;-77
2023/04/19 00:34:58;;;;;;;21.63;15.45;;;10.60;99.90;;;-144.05;65.12;56889.19;5094679;28;20048;-75
2023/04/19 00:37:23;;;;;;;21.98;15.38;;;10.60;99.90;;;-144.05;64.69;56921.06;5095994;28;20027;-76
2023/04/19 00:39:49;;;;;;;21.85;15.60;;;10.60;99.90;;;-144.05;65.12;56921.06;5095842;28;20028;-77
2023/04/19 00:42:15;;;;;;;25.42;15.15;;;10.60;99.90;;;-144.05;65.02;56906.19;5095306;28;20107;-76
2023/04/19 00:44:43;;;;;;;24.73;15.50;;;10.60;99.90;;;-144.05;64.79;56908.31;5095443;28;20031;-74
2023/04/19 00:47:09;;;;;;;24.13;15.18;;;10.60;99.90;;;-144.05;64.92;56893.44;5095648;28;20024;-76
2023/04/19 00:49:36;;;;;;;23.15;15.07;;;10.50;99.90;;;-144.05;65.13;56918.94;5094693;28;20031;-75
2023/04/19 00:52:02;;;;;;;26.88;15.48;;;10.50;99.90;;;-144.05;64.82;56891.31;5094884;28;20497;-75
2023/04/19 00:54:28;;;;;;;23.23;14.90;;;10.50;99.90;;;-144.05;64.84;56921.06;5094914;28;20066;-77
2023/04/19 00:56:55;;;;;;;20.48;14.27;;;10.50;99.90;;;-144.05;64.20;56904.06;5094207;28;20024;-78
2023/04/19 00:59:23;;;;;;;21.88;13.35;;;10.50;99.90;;;-144.05;64.35;56899.81;5093662;28;20024;-77
2023/04/19 01:01:50;;;;;;;22.30;13.90;;;10.50;99.90;;;-144.05;64.16;56916.81;5093340;28;20043;-77
2023/04/19 01:04:16;;;;;;;23.20;14.52;;;10.50;99.90;;;-144.05;64.13;56925.28;5093713;28;20483;-77
2023/04/19 01:06:42;;;;;;;20.75;13.27;;;10.50;99.90;;;-144.05;64.52;56904.06;5093910;28;20028;-77
2023/04/19 01:09:08;;;;;;;21.65;13.43;;;10.50;99.90;;;-144.05;64.03;56912.56;5095248;28;20024;-76
2023/04/19 01:11:34;;;;;;;18.30;13.15;;;10.50;99.90;;;-144.05;63.74;56916.81;5094962;28;20024;-78
2023/04/19 01:14:00;;;;;;;17.98;12.18;;;10.50;99.90;;;-144.05;63.74;56910.44;5094814;28;20050;-76
2023/04/19 01:16:26;;;;;;;21.85;13.38;;;10.50;99.90;;;-144.05;63.37;56927.41;5093717;28;20028;-77
2023/04/19 01:18:53;;;;;;;22.73;13.30;;;10.60;99.90;;;-144.05;63.53;56897.69;5076764;28;20028;-75
2023/04/19 01:21:21;;;;;;;19.85;13.25;;;10.50;99.90;;;-144.05;62.84;56901.94;5093664;28;20468;-78
2023/04/19 01:23:47;;;;;;;17.48;11.10;;;10.60;99.90;;;-144.05;62.13;56910.44;5094535;28;20074;-76
2023/04/19 01:26:13;;;;;;;19.70;13.00;;;10.60;99.90;;;-144.05;61.88;56923.19;5095230;28;20040;-79
2023/04/19 01:28:38;;;;;;;17.83;11.32;;;10.60;99.90;;;-144.05;61.87;56916.81;5093189;28;20115;-75
2023/04/19 01:31:04;;;;;;;16.90;10.65;;;10.50;99.90;;;-144.05;61.84;56931.66;5093829;28;20032;-77
2023/04/19 01:33:30;;;;;;;21.27;11.77;;;10.50;99.90;;;-144.05;61.62;56944.41;5093335;28;20039;-75
2023/04/19 01:35:56;;;;;;;16.80;9.75;;;10.50;99.90;;;-144.05;61.22;56931.66;5094487;28;20040;-78
2023/04/19 01:38:22;;;;;;;18.65;10.85;;;10.50;99.90;;;-144.05;61.23;56912.56;5092490;28;20182;-77
2023/04/19 01:40:48;;;;;;;17.77;10.13;;;10.50;99.90;;;-144.05;61.21;56914.69;5092337;28;20082;-78
2023/04/19 01:43:17;;;;;;;17.75;10.60;;;10.50;99.90;;;-144.05;60.55;56912.56;5093727;28;20030;-77
2023/04/19 01:45:44;;;;;;;16.13;10.15;;;10.50;99.90;;;-144.05;60.12;56893.44;5094004;28;20024;-76
2023/04/19 01:48:10;;;;;;;11.52;9.27;;;10.50;99.90;;;-144.05;60.02;56893.44;5092134;28;20024;-78
2023/04/19 01:50:36;;;;;;;14.80;9.30;;;10.60;99.90;;;-144.05;59.63;56925.28;5074613;28;20058;-78
2023/04/19 01:53:02;;;;;;;14.02;9.32;;;10.60;99.90;;;-144.05;59.85;56916.81;5075277;28;20052;-75
2023/04/19 01:55:28;;;;;;;13.82;9.25;;;10.50;99.90;;;-144.05;59.72;56914.69;5094957;28;20028;-78
2023/04/19 01:57:54;;;;;;;14.90;8.75;;;10.50;99.90;;;-144.05;59.36;56914.69;5093433;28;20028;-78
2023/04/19 02:00:21;;;;;;;12.45;8.75;;;10.50;99.90;;;-144.05;59.29;56906.19;5093291;28;20028;-77
2023/04/19 02:02:47;;;;;;;14.93;8.82;;;10.50;99.90;;;-144.05;59.11;56906.19;5092857;28;20028;-76
2023/04/19 02:05:13;;;;;;;16.77;8.73;;;10.50;99.90;;;-144.05;59.11;56942.28;5092682;28;20020;-78
2023/04/19 02:07:39;;;;;;;13.30;8.07;;;10.50;99.90;;;-144.05;58.83;56908.31;5093519;28;20070;-79
2023/04/19 02:10:10;;;;;;;13.70;8.25;;;10.50;99.90;;;-144.05;58.50;56874.31;5092095;28;20032;-77
2023/04/19 02:12:37;;;;;;;12.35;7.90;;;10.50;99.90;;;-144.05;58.41;56931.66;5105734;28;20012;-78
2023/04/19 02:15:03;;;;;;;16.35;8.00;;;10.50;99.90;;;-144.05;58.00;56912.56;5101863;28;20036;-77
2023/04/19 02:17:30;;;;;;;12.35;7.32;;;10.50;99.90;;;-144.05;57.53;56927.41;5101196;28;20631;-78
2023/04/19 02:19:56;;;;;;;9.98;7.30;;;10.50;99.90;;;-144.05;57.44;56918.94;5081945;28;20038;-79
2023/04/19 02:22:22;;;;;;;12.30;6.25;;;10.50;99.90;;;-144.05;57.18;56880.69;5100312;28;20028;-78
2023/04/19 02:24:50;;;;;;;10.25;6.28;;;10.50;99.90;;;-144.05;56.59;56942.28;5099857;28;20032;-78
2023/04/19 02:27:16;;;;;;;10.82;6.35;;;10.50;99.90;;;-144.05;56.41;56906.19;5095126;28;20027;-79
2023/04/19 02:29:43;;;;;;;11.77;6.85;;;10.50;99.90;;;-144.05;57.08;56914.69;5096398;28;20131;-78
2023/04/19 02:32:11;;;;;;;10.05;6.80;;;10.50;99.90;;;-144.05;56.72;56914.69;5094109;28;20020;-77
2023/04/19 02:34:37;;;;;;;8.23;6.13;;;10.50;99.90;;;-144.05;56.62;56912.56;5094011;28;20388;-76
2023/04/19 02:37:04;;;;;;;8.68;5.68;;;10.50;99.90;;;-144.05;56.38;56912.56;5074851;28;20032;-77
2023/04/19 02:39:30;;;;;;;7.95;5.72;;;10.40;99.90;;;-144.05;56.23;56925.28;5092513;28;20048;-78
2023/04/19 02:41:56;;;;;;;9.77;5.82;;;10.40;99.90;;;-144.05;56.33;56906.19;5093844;28;20077;-76
2023/04/19 02:44:22;;;;;;;8.93;6.47;;;10.40;99.90;;;-144.05;55.77;56916.81;5093057;28;20526;-77
2023/04/19 02:46:52;;;;;;;8.35;5.75;;;10.40;99.90;;;-144.05;56.06;56906.19;5093777;28;20054;-77
2023/04/19 02:49:20;;;;;;;8.18;5.97;;;10.30;99.90;;;-144.05;56.20;56921.06;5093810;28;20149;-77
2023/04/19 02:51:46;;;;;;;11.63;6.70;;;10.40;99.90;;;-144.05;55.85;56895.56;5095798;28;20099;-77
2023/04/19 02:54:13;;;;;;;9.38;5.75;;;10.30;99.90;;;-144.05;56.04;56912.56;5097683;28;20096;-78
2023/04/19 02:56:39;;;;;;;9.93;5.53;;;10.30;99.90;;;-144.05;55.55;56916.81;5096035;28;20509;-77
2023/04/19 02:59:05;;;;;;;9.82;5.47;;;10.30;99.90;;;-144.05;55.79;56914.69;5096707;28;20044;-76
2023/04/19 03:01:32;;;;;;;9.88;5.93;;;10.30;99.90;;;-144.05;56.20;56935.91;5096181;28;20035;-75
2023/04/19 03:03:58;;;;;;;7.57;5.38;;;10.30;99.90;;;-144.05;55.55;56914.69;5095763;28;20048;-77
2023/04/19 03:06:25;;;;;;;9.48;5.43;;;10.20;99.90;;;-144.05;55.53;56918.94;5095706;28;20028;-77
2023/04/19 03:08:51;;;;;;;7.78;5.32;;;10.20;99.90;;;-144.05;55.26;56908.31;5077922;28;20085;-76
2023/04/19 03:11:17;;;;;;;9.13;5.57;;;10.20;99.90;;;-144.05;55.00;56933.78;5096953;28;20097;-79
2023/04/19 03:13:43;;;;;;;9.27;5.30;;;10.20;99.90;;;-144.05;54.79;56901.94;5096771;28;20332;-78
2023/04/19 03:16:09;;;;;;;7.60;5.35;;;10.20;99.90;;;-144.05;54.99;56929.53;5098153;28;20069;-77
2023/04/19 03:18:35;;;;;;;8.07;5.13;;;10.20;99.90;;;-144.05;54.22;56901.94;5080443;28;20501;-77
2023/04/19 03:21:02;;;;;;;8.52;5.93;;;10.20;99.90;;;-144.05;54.06;56940.16;5097915;28;20028;-76
2023/04/19 03:23:29;;;;;;;9.15;5.32;;;10.10;99.90;;;-144.05;53.98;56912.56;5097530;28;20084;-76
2023/04/19 03:25:58;;;;;;;7.93;5.47;;;10.20;99.90;;;-144.05;53.92;56927.41;5097505;28;20034;-79
2023/04/19 03:28:23;;;;;;;9.15;5.07;;;10.10;99.90;;;-144.05;53.89;56921.06;5098428;28;20443;-77
2023/04/19 03:30:49;;;;;;;7.55;5.13;;;10.10;99.90;;;-144.05;53.56;56887.06;5097528;28;20028;-77
2023/04/19 03:33:15;;;;;;;6.80;4.80;;;10.10;99.90;;;-144.05;52.62;56891.31;5098158;28;20454;-78
2023/04/19 03:35:43;;;;;;;9.65;5.22;;;10.00;99.90;;;-144.05;52.90;56914.69;5097644;28;20039;-77
2023/04/19 03:38:08;;;;;;;8.20;5.18;;;10.00;99.90;;;-144.05;52.48;56910.44;5097811;28;20024;-77
2023/04/19 03:40:37;;;;;;;8.13;4.70;;;10.00;99.90;;;-144.05;52.48;56918.94;5097848;28;20036;-78
2023/04/19 03:43:03;;;;;;;7.97;4.55;;;9.90;99.90;;;-144.05;52.22;56933.78;5096239;28;20048;-77
2023/04/19 03:45:30;;;;;;;9.07;5.03;;;9.90;99.90;;;-144.05;52.44;56925.28;5097416;28;20035;-78
2023/04/19 03:47:55;;;;;;;9.68;4.97;;;9.70;99.90;;;-144.05;52.59;56874.31;5097339;28;20039;-78
2023/04/19 03:50:21;;;;;;;7.22;4.95;;;9.60;99.90;;;-144.05;52.27;56897.69;5095456;28;20440;-76
2023/04/19 03:52:47;;;;;;;6.30;4.43;;;9.50;99.90;;;-144.05;52.38;56942.28;5095537;28;20055;-77
2023/04/19 03:55:13;;;;;;;6.78;4.57;;;9.40;99.90;;;-144.05;51.77;56925.28;5097476;28;20065;-78
2023/04/19 03:57:39;;;;;;;8.15;4.85;;;9.50;99.90;;;-144.05;51.78;56923.19;5098529;28;20060;-77
2023/04/19 04:00:07;;;;;;;6.05;4.40;;;9.50;99.90;;;-144.05;51.54;56933.78;5098296;28;20471;-78
2023/04/19 04:02:36;;;;;;;8.88;4.95;;;9.40;99.90;;;-144.05;51.40;56927.41;5097416;28;20043;-78
2023/04/19 04:05:02;;;;;;;9.07;5.05;;;9.40;99.90;;;-144.05;51.51;56908.31;5079874;28;20020;-79
2023/04/19 04:07:28;;;;;;;8.73;5.47;;;9.40;99.90;;;-144.05;51.38;56912.56;5097771;28;20047;-79
2023/04/19 04:09:54;;;;;;;8.98;5.30;;;9.40;99.90;;;-144.05;51.29;56914.69;5096493;28;20614;-78
2023/04/19 04:12:20;;;;;;;7.13;4.70;;;9.30;99.90;;;-144.05;52.06;56918.94;5097704;28;20051;-79
2023/04/19 04:14:46;;;;;;;7.13;4.57;;;9.20;99.90;;;-144.05;52.02;56957.16;5097549;28;20035;-77
2023/04/19 04:17:12;;;;;;;8.10;5.53;;;9.20;99.90;;;-144.05;51.57;56925.28;5096948;28;20032;-77
2023/04/19 04:19:38;;;;;;;12.48;5.65;;;9.10;99.90;;;-144.05;51.81;56929.53;5096716;28;20041;-77
2023/04/19 04:22:04;;;;;;;8.65;4.75;;;9.10;99.90;;;-144.05;51.15;56933.78;5095337;28;20526;-76
2023/04/19 04:24:37;;;;;;;7.85;5.68;;;9.10;99.90;;;-144.05;51.45;56910.44;5095666;28;20027;-78
2023/04/19 04:27:03;;;;;;;7.00;4.80;;;9.10;99.90;;;-144.05;51.44;56923.19;5077720;28;20078;-76
2023/04/19 04:29:32;;;;;;;8.73;5.85;;;9.00;99.90;;;-144.05;51.54;56918.94;5096254;28;20096;-80
2023/04/19 04:31:57;;;;;;;8.82;5.38;;;9.10;99.90;;;-144.05;51.08;56901.94;5094632;28;20048;-78
2023/04/19 04:34:24;;;;;;;6.72;4.70;;;9.10;99.90;;;-144.05;51.35;56916.81;5097039;28;20032;-79
2023/04/19 04:36:50;;;;;;;9.07;5.85;;;9.10;99.90;;;-144.05;51.47;56901.94;5095814;28;20032;-77
2023/04/19 04:39:17;;;;;;;9.40;6.00;;;9.10;99.90;;;-144.05;51.49;56946.53;5095905;28;20097;-78
2023/04/19 04:41:42;;;;;;;9.48;5.68;;;9.00;99.90;;;-144.05;51.61;56914.69;5094727;28;20036;-79
2023/04/19 04:44:08;;;;;;;8.73;5.70;;;9.10;99.90;;;-144.05;51.44;56938.03;5097573;28;20198;-79
2023/04/19 04:46:35;;;;;;;14.18;6.38;;;9.10;99.90;;;-144.05;51.39;56916.81;5078292;28;20031;-76
2023/04/19 04:49:00;;;;;;;10.32;5.80;;;9.10;99.90;;;-144.05;51.54;56931.66;5095306;28;20035;-79
2023/04/19 04:51:26;;;;;;;10.90;6.22;;;9.10;99.90;;;-144.05;51.66;56912.56;5095815;28;20016;-78
2023/04/19 04:53:52;;;;;;;9.32;5.88;;;9.00;99.90;;;-144.05;51.31;56929.53;5094993;28;20032;-77
2023/04/19 04:56:18;;;;;;;9.45;6.60;;;9.10;99.90;;;-144.05;51.25;56916.81;5096202;28;20387;-76
2023/04/19 04:58:44;;;;;;;10.95;6.10;;;9.10;99.90;;;-144.05;51.35;56950.78;5095722;28;20047;-77
2023/04/19 05:01:10;;;;;;;12.10;6.53;;;9.10;99.90;;;-144.05;51.52;56918.94;5095011;28;20031;-77
2023/04/19 05:03:36;;;;;;;10.77;7.00;;;9.10;99.90;;;-144.05;51.20;56931.66;5094986;28;20024;-78
2023/04/19 05:06:02;;;;;;;9.65;6.30;;;9.10;99.90;;;-144.05;50.99;56908.31;5094511;28;20301;-77
2023/04/19 05:08:28;;;;;;;11.35;6.75;;;9.10;99.90;;;-144.05;50.82;56929.53;5078056;28;20128;-79
2023/04/19 05:10:54;;;;;;;11.57;6.50;;;9.10;99.90;;;-144.05;50.77;56933.78;5099005;28;20032;-80
2023/04/19 05:13:20;;;;;;;12.00;5.93;;;9.10;99.90;;;-144.05;50.84;56935.91;5099534;28;20028;-78
2023/04/19 05:15:45;;;;;;;10.52;6.72;;;9.10;99.90;;;-144.05;50.05;56927.41;5100110;28;20426;-79
2023/04/19 05:18:11;;;;;;;11.18;6.70;;;9.10;99.90;;;-144.05;50.51;56933.78;5099773;28;20032;-79
2023/04/19 05:20:38;;;;;;;10.57;6.75;;;9.10;99.90;;;-144.05;50.63;56910.44;5098438;28;20024;-79
2023/04/19 05:23:03;;;;;;;13.68;6.28;;;9.20;99.90;;;-144.05;50.67;56910.44;5098338;28;20032;-78
2023/04/19 05:25:29;;;;;;;11.02;6.38;;;9.10;99.90;;;-144.05;50.88;56933.78;5098581;28;20048;-78
2023/04/19 05:27:56;;;;;;;10.60;6.03;;;9.10;99.90;;;-144.05;50.25;56910.44;5097932;28;20066;-79
2023/04/19 05:30:22;;;;;;;10.90;6.25;;;9.10;99.90;;;-144.05;50.12;56963.53;5099009;28;20494;-79
2023/04/19 05:32:48;;;;;;;14.15;6.68;;;9.00;99.90;;;-144.05;50.38;56933.78;5096314;28;20032;-79
2023/04/19 05:35:14;;;;;;;10.32;5.90;;;9.10;99.90;;;-144.05;50.25;56908.31;5096772;28;20059;-79
2023/04/19 05:37:40;;;;;;;9.35;6.22;;;9.10;99.90;;;-144.05;50.04;56923.19;5094053;28;20128;-76
2023/04/19 05:40:10;;;;;;;9.50;5.90;;;9.10;99.90;;;-144.05;50.00;56904.06;5094323;28;20035;-77
2023/04/19 05:42:37;;;;;;;10.93;6.13;;;9.10;99.90;;;-144.05;48.75;56916.81;5096027;28;20376;-79
2023/04/19 05:45:06;;;;;;;11.32;6.45;;;9.10;99.90;;;-144.05;48.75;56935.91;5097566;28;20453;-79
2023/04/19 05:47:32;;;;;;;11.27;6.18;;;9.10;99.90;;;-144.05;49.19;56946.53;5096958;28;20021;-78
2023/04/19 05:49:58;;;;;;;9.27;6.10;;;9.10;99.90;;;-144.05;48.58;56918.94;5097644;28;20046;-78
2023/04/19 05:52:23;;;;;;;12.43;6.15;;;9.20;99.90;;;-144.05;48.00;56933.78;5095648;28;20033;-79
2023/04/19 05:54:49;;;;;;;10.20;6.05;;;9.30;99.90;;;-144.05;47.68;56914.69;5080810;28;20055;-80
2023/04/19 05:57:15;;;;;;;11.18;6.03;;;9.40;99.90;;;-144.05;46.29;56923.19;5100522;28;20017;-79
2023/04/19 05:59:41;;;;;;;8.50;5.80;;;9.80;99.90;;;-144.05;44.73;56910.44;5098870;28;20043;-79
2023/04/19 06:02:07;;;;;;;8.70;5.18;;;10.00;99.90;;;-144.05;43.24;56918.94;5097814;28;20085;-78
2023/04/19 06:04:33;;;;;;;10.90;5.70;;;10.20;99.90;;;-144.05;42.25;56908.31;5097912;28;20028;-80
2023/04/19 06:06:59;;;;;;;9.52;5.22;;;10.10;99.90;;;-144.05;42.58;56918.94;5100234;28;20046;-77
2023/04/19 06:09:25;;;;;;;12.25;4.75;;;9.80;99.90;;;-144.05;41.52;56921.06;5100109;28;20035;-79
2023/04/19 06:11:53;;;;;;;7.10;4.43;;;9.70;99.90;;;-144.05;41.41;56916.81;5101268;28;20094;-80
2023/04/19 06:14:19;;;;;;;13.05;4.45;;;9.70;99.90;;;-144.05;40.91;56914.69;5100522;28;20028;-80
2023/04/19 06:16:45;;;;;;;12.00;4.75;;;9.60;99.90;;;-144.05;41.04;56918.94;5100282;28;20032;-79
2023/04/19 06:19:11;;;;;;;8.55;4.93;;;9.50;99.90;;;-144.05;40.49;56918.94;5098249;28;20044;-80
2023/04/19 06:21:37;;;;;;;13.82;4.32;;;9.70;99.90;;;-144.05;40.03;56901.94;5098009;28;20031;-79
2023/04/19 06:24:06;;;;;;;7.97;4.53;;;9.90;99.90;;;-144.05;39.69;56933.78;5098267;28;20513;-78
2023/04/19 06:26:32;;;;;;;6.55;3.78;;;10.10;99.90;;;-144.05;38.64;56916.81;5103462;28;20043;-79
2023/04/19 06:28:58;;;;;;;7.88;3.78;;;10.30;99.90;;;-144.05;39.19;56927.41;5102267;28;20505;-79
2023/04/19 06:31:24;;;;;;;7.35;3.83;;;10.10;99.90;;;-144.05;39.43;56935.91;5103923;28;20083;-80
2023/04/19 06:33:50;;;;;;;8.63;4.30;;;9.70;99.90;;;-144.05;40.59;56935.91;5102389;28;20032;-78
2023/04/19 06:36:16;;;;;;;10.57;4.10;;;9.30;99.90;;;-144.05;40.58;56927.41;5101551;28;20117;-81
2023/04/19 06:38:43;;;;;;;9.38;4.25;;;9.20;99.90;;;-144.05;40.20;56933.78;5101737;28;20032;-78
2023/04/19 06:41:09;;;;;;;7.47;4.07;;;9.40;99.90;;;-144.05;40.00;56921.06;5100998;28;20043;-79
2023/04/19 06:43:35;;;;;;;6.40;3.83;;;9.70;99.90;;;-144.05;39.05;56897.69;5101655;28;20028;-77
2023/04/19 06:46:03;;;;;;;4.85;3.67;;;10.10;99.90;;;-144.05;38.30;56908.31;5101384;28;20028;-80
2023/04/19 06:48:29;;;;;;;12.27;4.63;;;10.50;99.90;;;-144.05;37.71;56906.19;5103753;28;20021;-78
2023/04/19 06:50:56;;;;;;;11.73;4.05;;;10.80;99.90;;;-144.05;37.60;56912.56;5103397;28;20403;-80
2023/04/19 06:53:22;;;;;;;7.75;3.85;;;10.80;99.90;;;-144.05;37.25;56916.81;5083814;28;20135;-78
2023/04/19 06:55:48;;;;;;;6.88;3.67;;;11.10;99.90;;;-144.05;37.20;56916.81;5102806;28;20028;-79
2023/04/19 06:58:14;;;;;;;7.15;4.07;;;11.40;99.90;;;-144.05;36.75;56908.31;5102458;28;20066;-79
2023/04/19 07:00:40;;;;;;;7.63;3.95;;;11.30;99.90;;;-144.05;36.99;56904.06;5100794;28;20035;-80
2023/04/19 07:03:05;;;;;;;9.30;4.25;;;11.30;99.90;;;-144.05;37.03;56912.56;5101933;28;20493;-79
2023/04/19 07:05:31;;;;;;;7.07;3.58;;;11.00;98.90;;;-144.05;36.66;56906.19;5100459;28;20074;-80
2023/04/19 07:07:57;;;;;;;5.97;3.45;;;11.10;99.50;;;-144.05;36.52;56912.56;5103002;28;20076;-80
2023/04/19 07:10:23;;;;;;;6.93;3.45;;;11.40;99.00;;;-144.05;36.21;56908.31;5102952;28;20398;-77
2023/04/19 07:12:50;;;;;;;6.82;3.53;;;11.50;98.20;;;-144.05;35.31;56918.94;5083940;28;20024;-79
2023/04/19 07:15:16;;;;;;;5.90;3.17;;;11.60;96.20;;;-144.05;35.28;56904.06;5100976;28;20048;-78
2023/04/19 07:17:42;;;;;;;7.85;3.40;;;11.60;96.60;;;-144.05;35.15;56906.19;5101738;28;20043;-80
2023/04/19 07:20:08;;;;;;;8.10;3.10;;;12.00;96.40;;;-144.05;34.67;56895.56;5102588;28;20077;-79
2023/04/19 07:22:34;;;;;;;8.65;3.42;;;12.00;95.00;;;-144.05;34.80;56908.31;5101459;28;20119;-79
2023/04/19 07:25:00;;;;;;;9.82;3.42;;;11.90;94.70;;;-144.05;34.27;56908.31;5101006;28;20278;-78
2023/04/19 07:27:26;;;;;;;5.85;3.10;;;12.20;93.60;;;-144.05;34.12;56867.94;5102513;28;20065;-80
2023/04/19 07:29:52;;;;;;;7.88;2.90;;;12.10;93.10;;;-144.05;34.46;56908.31;5102156;28;20020;-79
2023/04/19 07:32:18;;;;;;;6.40;2.72;;;12.00;94.00;;;-144.05;34.03;56908.31;5083568;28;20024;-80
2023/04/19 07:34:45;;;;;;;5.75;3.08;;;12.30;93.30;;;-144.05;33.67;56901.94;5099495;28;20028;-79
2023/04/19 07:37:11;;;;;;;6.80;2.97;;;12.30;91.90;;;-144.05;34.29;56895.56;5099849;28;20026;-78
2023/04/19 07:39:38;;;;;;;4.82;2.60;;;12.30;91.90;;;-144.05;34.33;56906.19;5097898;28;20035;-79
2023/04/19 07:42:04;;;;;;;8.00;3.30;;;12.30;91.50;;;-144.05;33.70;56865.81;5101970;28;20042;-78
2023/04/19 07:44:30;;;;;;;8.50;2.72;;;12.50;91.30;;;-144.05;33.39;56878.56;5101785;28;20116;-77
2023/04/19 07:46:56;;;;;;;5.00;3.00;;;12.70;91.00;;;-144.05;32.94;56876.44;5099405;28;20447;-78
2023/04/19 07:49:22;;;;;;;6.05;2.72;;;12.80;90.10;;;-144.05;33.16;56878.56;5101070;28;20028;-79
2023/04/19 07:51:48;;;;;;;6.70;2.88;;;12.90;89.60;;;-144.05;33.72;56908.31;5100402;28;20059;-78
2023/04/19 07:54:19;;;;;;;6.18;2.70;;;12.50;90.40;;;-144.05;33.63;56895.56;5100608;28;20452;-77
2023/04/19 07:56:45;;;;;;;8.70;3.33;;;12.60;91.10;;;-144.05;33.40;56916.81;5099870;28;20035;-77
2023/04/19 07:59:11;;;;;;;7.65;2.95;;;12.70;89.60;;;-144.05;33.54;56889.19;5099500;28;20139;-79
2023/04/19 08:01:37;;;;;;;6.10;3.42;;;12.60;90.10;;;-144.05;33.61;56884.94;5098094;28;20472;-78
2023/04/19 08:04:03;;;;;;;8.55;3.13;;;12.40;89.40;;;-144.05;34.01;56876.44;5100001;28;20119;-78
2023/04/19 08:06:29;;;;;;;4.65;2.92;;;12.40;89.80;;;-144.05;33.39;56912.56;5100314;28;20082;-77
2023/04/19 08:08:55;;;;;;;9.15;2.90;;;12.70;89.60;;;-144.05;32.83;56887.06;5100531;28;20028;-80
2023/04/19 08:11:22;;;;;;;6.47;2.92;;;12.80;89.20;;;-144.05;33.08;56891.31;5100818;28;20111;-79
2023/04/19 08:13:48;;;;;;;9.13;3.42;;;12.90;87.80;;;-144.05;33.51;56870.06;5101718;28;20115;-79
2023/04/19 08:16:13;;;;;;;7.07;2.83;;;12.60;86.60;;;-144.05;33.99;56895.56;5099391;28;20063;-79
2023/04/19 08:18:40;;;;;;;5.72;2.47;;;12.20;88.60;;;-144.05;34.39;56912.56;5098906;28;20024;-79
2023/04/19 08:21:06;;;;;;;4.65;2.78;;;12.10;88.90;;;-144.05;34.27;56921.06;5100226;28;20036;-79
2023/04/19 08:23:32;;;;;;;5.30;3.00;;;12.20;89.20;;;-144.05;33.87;56878.56;5098271;28;20447;-78
2023/04/19 08:25:58;;;;;;;4.85;2.70;;;12.50;87.90;;;-144.05;33.07;56891.31;5098706;28;20031;-79
2023/04/19 08:28:24;;;;;;;5.68;2.40;;;12.70;86.40;;;-144.05;32.89;56921.06;5099625;28;20032;-79
2023/04/19 08:30:49;;;;;;;6.07;2.50;;;12.80;84.70;;;-144.05;33.07;56901.94;5099285;28;20036;-79
2023/04/19 08:33:15;;;;;;;5.20;2.60;;;12.90;86.30;;;-144.05;33.09;56921.06;5099760;28;20058;-79
2023/04/19 08:35:41;;;;;;;3.78;2.15;;;12.80;84.40;;;-144.05;32.39;56889.19;5101772;28;20024;-79
2023/04/19 08:38:08;;;;;;;5.60;2.45;;;12.80;82.60;;;-144.05;32.52;56904.06;5099632;28;20548;-78
2023/04/19 08:40:44;;;;;;;8.38;2.45;;;12.70;83.00;;;-144.05;32.78;56904.06;5097829;28;20035;-80
2023/04/19 08:43:10;;;;;;;9.13;2.42;;;12.70;83.10;;;-144.05;33.03;56876.44;5100437;28;20495;-79
2023/04/19 08:45:37;;;;;;;5.80;2.35;;;12.70;83.50;;;-144.05;32.83;56912.56;5098773;28;20016;-80
2023/04/19 08:48:05;;;;;;;5.05;2.25;;;12.80;83.00;;;-144.05;32.35;56908.31;5097845;28;20092;-79
2023/04/19 08:50:32;;;;;;;5.63;2.35;;;12.80;80.70;;;-144.05;32.33;56880.69;5098575;28;20364;-78
2023/04/19 08:53:00;;;;;;;6.68;2.22;;;13.20;82.30;;;-144.05;31.70;56891.31;5097073;28;20039;-78
2023/04/19 08:55:28;;;;;;;6.38;2.03;;;13.30;79.70;;;-144.05;31.35;56891.31;5097104;28;20403;-77
2023/04/19 08:57:55;;;;;;;4.45;1.85;;;13.30;78.00;;;-144.05;30.77;56893.44;5096916;28;20039;-78
2023/04/19 09:00:21;;;;;;;4.22;1.90;;;13.50;76.80;;;-144.05;31.16;56923.19;5101354;28;20032;-78
2023/04/19 09:02:53;;;;;;;3.95;2.10;;;13.10;76.60;;;-144.05;31.83;56880.69;5086575;28;20036;-79
2023/04/19 09:05:20;;;;;;;10.63;2.17;;;13.00;78.40;;;-144.05;31.04;56897.69;5100578;28;20074;-78
2023/04/19 09:07:47;;;;;;;2.67;1.70;;;13.40;77.70;;;-144.05;30.80;56897.69;5099242;28;20044;-78
2023/04/19 09:10:24;;;;;;;2.58;1.95;;;13.40;76.10;;;-144.05;30.96;56895.56;5080328;28;20109;-80
2023/04/19 09:13:04;;;;;;;4.10;1.80;;;13.20;74.60;;;-144.05;30.53;56880.69;5099220;28;20020;-77
2023/04/19 09:15:40;;;;;;;6.55;2.00;;;13.60;75.00;;;-144.05;31.00;56884.94;5099381;28;20399;-79
2023/04/19 09:18:10;;;;;;;5.80;2.63;;;13.60;74.70;;;-144.05;31.24;56908.31;5098781;28;20396;-79
2023/04/19 09:20:42;;;;;;;5.72;2.17;;;13.30;73.70;;;-144.05;31.06;56889.19;5081738;28;20095;-79
2023/04/19 09:23:17;;;;;;;3.50;1.70;;;13.10;73.60;;;-144.05;30.87;56916.81;5098567;28;20036;-79
2023/04/19 09:26:00;;;;;;;4.85;1.88;;;13.10;74.40;;;-144.05;30.82;56895.56;5079332;28;20577;-79
2023/04/19 09:28:28;;;;;;;2.85;1.80;;;13.20;72.80;;;-144.05;30.75;56887.06;5098776;28;20059;-79
2023/04/19 09:30:57;;;;;;;3.13;2.25;;;13.60;74.00;;;-144.05;30.12;56863.69;5100051;28;20024;-79
2023/04/19 09:33:38;;;;;;;4.35;2.38;;;13.60;71.70;;;-144.05;30.47;56891.31;5099346;28;20471;-77
2023/04/19 09:36:06;;;;;;;4.78;2.47;;;13.30;71.40;;;-144.05;30.86;56874.31;5080360;28;20101;-80
2023/04/19 09:38:49;;;;;;;5.32;2.42;;;13.30;73.80;;;-144.05;30.34;56921.06;5097513;28;20079;-78
2023/04/19 09:41:18;;;;;;;5.13;1.95;;;13.60;73.40;;;-144.05;30.34;56904.06;5097951;28;20482;-80
2023/04/19 09:43:45;;;;;;;3.05;1.88;;;13.90;72.80;;;-144.05;30.42;56889.19;5097491;28;20064;-78
2023/04/19 09:46:35;;;;;;;5.18;2.30;;;13.70;73.00;;;-144.05;30.75;56897.69;5099242;28;20064;-79
2023/04/19 09:49:14;;;;;;;3.50;2.25;;;13.50;73.60;;;-144.05;30.97;56906.19;5099730;28;20053;-79
2023/04/19 09:51:46;;;;;;;4.88;2.38;;;13.50;73.80;;;-144.05;31.51;56921.06;5098089;28;20052;-79
2023/04/19 09:54:16;;;;;;;4.20;2.67;;;13.60;74.80;;;-144.05;31.23;56904.06;5098069;28;20064;-79
2023/04/19 09:56:43;;;;;;;5.20;2.92;;;13.70;74.20;;;-144.05;31.37;56904.06;5099511;28;20035;-78
2023/04/19 09:59:11;;;;;;;6.55;2.42;;;14.00;75.70;;;-144.05;30.56;56910.44;5097822;28;20069;-80
2023/04/19 10:01:55;;;;;;;3.35;2.30;;;14.20;72.20;;;-144.05;29.99;56908.31;5102252;28;20533;-79
2023/04/19 10:04:21;;;;;;;4.65;2.40;;;14.40;70.50;;;-144.05;29.61;56912.56;5101881;28;20036;-81